createdAt,value
2024-03-07T00:01:15.102Z,100355.28
2024-03-07T00:04:30.061Z,100358.22
2024-03-07T00:07:32.015Z,100358.47
2024-03-07T00:10:47.085Z,100358.22
2024-03-07T00:14:02.018Z,100361.44
2024-03-07T00:17:17.061Z,100367.81
2024-03-07T00:20:26.141Z,100362.75
2024-03-07T00:23:34.697Z,100362.50
2024-03-07T00:26:43.055Z,100364.88
2024-03-07T00:29:51.625Z,100357.16
2024-03-07T00:33:06.097Z,100361.97
2024-03-07T00:36:14.559Z,100354.47
2024-03-07T00:39:23.020Z,100350.19
2024-03-07T00:42:38.056Z,100353.94
2024-03-07T00:45:40.153Z,100357.16
2024-03-07T00:49:02.041Z,100357.69
2024-03-07T00:52:04.337Z,100365.97
2024-03-07T00:55:19.072Z,100359.56
2024-03-07T00:58:21.261Z,100358.22
2024-03-07T01:01:36.092Z,100356.63
2024-03-07T01:04:44.804Z,100361.44
2024-03-07T01:07:54.026Z,100348.63
2024-03-07T01:11:02.945Z,100355.28
2024-03-07T01:14:11.072Z,100357.97
2024-03-07T01:17:26.045Z,100353.44
2024-03-07T01:20:27.949Z,100351.28
2024-03-07T01:23:43.071Z,100351.03
2024-03-07T01:26:58.127Z,100348.09
2024-03-07T01:30:07.061Z,100346.75
2024-03-07T01:33:16.097Z,100345.16
2024-03-07T01:36:31.026Z,100349.69
2024-03-07T01:39:39.947Z,100348.87
2024-03-07T01:42:49.077Z,100356.13
2024-03-07T01:45:58.597Z,100352.34
2024-03-07T01:49:14.046Z,100355.81
2024-03-07T01:52:22.968Z,100349.13
2024-03-07T01:55:32.054Z,100356.59
2024-03-07T01:58:50.038Z,100358.22
2024-03-07T02:01:52.387Z,100356.63
2024-03-07T02:05:14.094Z,100350.72
2024-03-07T02:08:29.087Z,100351.53
2024-03-07T02:11:31.529Z,100358.75
2024-03-07T02:14:46.166Z,100346.44
2024-03-07T02:18:01.146Z,100352.87
2024-03-07T02:21:16.043Z,100353.41
2024-03-07T02:24:17.962Z,100344.88
2024-03-07T02:27:33.048Z,100333.13
2024-03-07T02:30:48.038Z,100349.66
2024-03-07T02:33:50.178Z,100343.53
2024-03-07T02:37:05.094Z,100346.97
2024-03-07T02:40:22.056Z,100337.41
2024-03-07T02:43:24.204Z,100348.06
2024-03-07T02:46:39.055Z,100346.22
2024-03-07T02:49:47.273Z,100339.78
2024-03-07T02:53:02.070Z,100341.66
2024-03-07T02:56:11.049Z,100331.53
2024-03-07T02:59:26.067Z,100347.78
2024-03-07T03:02:35.103Z,100343.25
2024-03-07T03:05:50.126Z,100344.31
2024-03-07T03:09:05.060Z,100339.25
2024-03-07T03:12:14.129Z,100334.44
2024-03-07T03:15:29.090Z,100345.34
2024-03-07T03:18:30.996Z,100345.34
2024-03-07T03:21:46.053Z,100345.63
2024-03-07T03:24:55.052Z,100344.00
2024-03-07T03:28:11.277Z,100337.56
2024-03-07T03:31:20.040Z,100344.25
2024-03-07T03:34:35.089Z,100343.41
2024-03-07T03:37:37.238Z,100338.63
2024-03-07T03:40:52.055Z,100340.19
2024-03-07T03:43:54.322Z,100342.06
2024-03-07T03:47:09.039Z,100342.28
2024-03-07T03:50:24.640Z,100338.81
2024-03-07T03:53:33.127Z,100349.78
2024-03-07T03:56:41.856Z,100353.22
2024-03-07T03:59:51.238Z,100355.91
2024-03-07T04:03:06.064Z,100353.78
2024-03-07T04:06:08.361Z,100353.50
2024-03-07T04:09:23.032Z,100353.50
2024-03-07T04:12:31.877Z,100358.56
2024-03-07T04:15:47.038Z,100361.19
2024-03-07T04:19:02.043Z,100350.28
2024-03-07T04:22:03.975Z,100360.62
2024-03-07T04:25:19.219Z,100361.69
2024-03-07T04:28:28.043Z,100369.41
2024-03-07T04:31:36.689Z,100369.13
2024-03-07T04:34:45.037Z,100373.38
2024-03-07T04:38:00.071Z,100371.72
2024-03-07T04:41:01.954Z,100376.50
2024-03-07T04:44:17.096Z,100370.91
2024-03-07T04:47:25.649Z,100377.25
2024-03-07T04:50:47.118Z,100372.19
2024-03-07T04:53:49.410Z,100374.28
2024-03-07T04:57:04.058Z,100382.81
2024-03-07T05:00:18.684Z,100370.56
2024-03-07T05:03:28.539Z,100370.84
2024-03-07T05:06:37.046Z,100387.38
2024-03-07T05:09:45.868Z,100378.06
2024-03-07T05:12:54.117Z,100391.09
2024-03-07T05:16:09.102Z,100393.22
2024-03-07T05:19:18.033Z,100388.72
2024-03-07T05:22:26.057Z,100396.72
2024-03-07T05:25:34.976Z,100395.44
2024-03-07T05:28:50.064Z,100401.00
2024-03-07T05:32:28.393Z,100400.75
2024-03-07T05:35:43.084Z,100407.97
2024-03-07T05:38:52.124Z,100405.25
2024-03-07T05:42:01.433Z,100406.84
2024-03-07T05:45:17.077Z,100402.91
2024-03-07T05:48:32.146Z,100415.41
2024-03-07T05:51:47.096Z,100415.41
2024-03-07T05:54:49.340Z,100424.72
2024-03-07T05:58:04.061Z,100426.28
2024-03-07T06:01:12.087Z,100415.38
2024-03-07T06:04:20.656Z,100425.53
2024-03-07T06:07:35.061Z,100421.31
2024-03-07T06:10:51.062Z,100427.94
2024-03-07T06:13:53.109Z,100434.88
2024-03-07T06:17:08.053Z,100426.34
2024-03-07T06:20:23.138Z,100431.97
2024-03-07T06:23:32.082Z,100427.19
2024-03-07T06:26:47.683Z,100428.84
2024-03-07T06:29:50.065Z,100432.00
2024-03-07T06:33:05.132Z,100435.81
2024-03-07T06:36:14.137Z,100434.75
2024-03-07T06:39:22.592Z,100430.53
2024-03-07T06:42:31.081Z,100438.19
2024-03-07T06:45:41.135Z,100434.97
2024-03-07T06:48:56.153Z,100451.25
2024-03-07T06:52:12.039Z,100450.69
2024-03-07T06:55:18.380Z,100454.13
2024-03-07T06:58:34.059Z,100456.59
2024-03-07T07:01:49.159Z,100456.81
2024-03-07T07:04:57.953Z,100461.38
2024-03-07T07:08:13.180Z,100463.47
2024-03-07T07:11:15.525Z,100462.41
2024-03-07T07:14:30.158Z,100462.75
2024-03-07T07:17:47.119Z,100468.91
2024-03-07T07:20:49.339Z,100470.22
2024-03-07T07:24:04.103Z,100465.94
2024-03-07T07:27:13.077Z,100468.34
2024-03-07T07:30:30.048Z,100476.63
2024-03-07T07:33:38.174Z,100464.16
2024-03-07T07:36:46.630Z,100472.38
2024-03-07T07:39:55.071Z,100478.75
2024-03-07T07:43:04.118Z,100471.53
2024-03-07T07:46:13.079Z,100478.72
2024-03-07T07:49:28.438Z,100477.94
2024-03-07T07:52:37.088Z,100468.03
2024-03-07T07:55:45.901Z,100477.31
2024-03-07T07:58:54.060Z,100481.09
2024-03-07T08:02:09.061Z,100479.53
2024-03-07T08:05:21.719Z,100489.16
2024-03-07T08:08:30.134Z,100491.59
2024-03-07T08:11:38.752Z,100489.97
2024-03-07T08:14:47.071Z,100499.88
2024-03-07T08:17:56.809Z,100500.94
2024-03-07T08:21:12.183Z,100478.50
2024-03-07T08:24:27.076Z,100503.88
2024-03-07T08:27:36.058Z,100506.00
2024-03-07T08:30:44.928Z,100503.62
2024-03-07T08:34:00.128Z,100500.94
2024-03-07T08:37:08.874Z,100512.19
2024-03-07T08:40:27.415Z,100521.84
2024-03-07T08:43:31.054Z,100518.59
2024-03-07T08:46:47.097Z,100518.91
2024-03-07T08:50:10.043Z,100525.56
2024-03-07T08:53:19.129Z,100524.22
2024-03-07T08:56:34.149Z,100530.81
2024-03-07T08:59:36.457Z,100515.34
2024-03-07T09:02:52.120Z,100532.50
2024-03-07T09:06:01.115Z,100506.84
2024-03-07T09:09:16.058Z,100520.47
2024-03-07T09:12:18.225Z,100526.62
2024-03-07T09:15:33.053Z,100529.25
2024-03-07T09:18:48.067Z,100538.94
2024-03-07T09:22:03.055Z,100534.97
2024-03-07T09:25:12.201Z,100543.47
2024-03-07T09:28:21.057Z,100538.91
2024-03-07T09:31:36.075Z,100540.56
2024-03-07T09:34:44.975Z,100537.12
2024-03-07T09:37:54.098Z,100537.12
2024-03-07T09:41:02.634Z,100544.09
2024-03-07T09:44:12.087Z,100543.03
2024-03-07T09:47:21.614Z,100540.38
2024-03-07T09:50:44.234Z,100544.69
2024-03-07T09:54:01.152Z,100542.53
2024-03-07T09:57:04.225Z,100548.97
2024-03-07T10:00:21.052Z,100548.75
2024-03-07T10:03:38.063Z,100548.97
2024-03-07T10:06:40.329Z,100546.53
2024-03-07T10:09:56.164Z,100553.50
2024-03-07T10:12:58.368Z,100545.47
2024-03-07T10:16:14.074Z,100546.56
2024-03-07T10:19:22.502Z,100554.06
2024-03-07T10:22:30.948Z,100552.16
2024-03-07T10:25:39.071Z,100552.41
2024-03-07T10:28:49.209Z,100558.81
2024-03-07T10:32:04.791Z,100566.28
2024-03-07T10:35:14.736Z,100562.81
2024-03-07T10:38:30.078Z,100563.63
2024-03-07T10:41:43.925Z,100557.47
2024-03-07T10:45:04.105Z,100559.34
2024-03-07T10:48:23.549Z,100566.03
2024-03-07T10:51:47.096Z,100564.16
2024-03-07T10:55:17.616Z,100567.59
2024-03-07T10:59:05.068Z,100567.59
2024-03-07T11:02:32.205Z,100577.44
2024-03-07T11:05:41.239Z,100568.16
2024-03-07T11:08:57.103Z,100561.72
2024-03-07T11:12:01.279Z,100560.41
2024-03-07T11:15:18.143Z,100570.59
2024-03-07T11:18:27.104Z,100570.31
2024-03-07T11:21:41.982Z,100567.38
2024-03-07T11:25:11.081Z,100562.41
2024-03-07T11:28:24.089Z,100570.66
2024-03-07T11:31:32.705Z,100567.97
2024-03-07T11:34:49.209Z,100562.13
2024-03-07T11:37:58.051Z,100559.16
2024-03-07T11:41:13.116Z,100556.50
2024-03-07T11:44:21.747Z,100555.97
2024-03-07T11:47:34.286Z,100550.38
2024-03-07T11:50:49.686Z,100558.94
2024-03-07T11:54:05.131Z,100562.34
2024-03-07T11:57:15.063Z,100560.19
2024-03-07T12:00:23.706Z,100558.03
2024-03-07T12:03:32.077Z,100559.44
2024-03-07T12:06:47.077Z,100564.00
2024-03-07T12:09:50.666Z,100555.97
2024-03-07T12:13:05.068Z,100551.38
2024-03-07T12:16:07.414Z,100553.78
2024-03-07T12:19:23.300Z,100552.69
2024-03-07T12:22:32.330Z,100556.16
2024-03-07T12:25:40.750Z,100556.94
2024-03-07T12:28:56.140Z,100556.38
2024-03-07T12:31:58.563Z,100558.25
2024-03-07T12:35:14.129Z,100553.72
2024-03-07T12:38:16.674Z,100558.25
2024-03-07T12:41:31.109Z,100552.41
2024-03-07T12:44:50.128Z,100555.37
2024-03-07T12:48:14.152Z,100562.59
2024-03-07T12:51:29.166Z,100556.78
2024-03-07T12:54:45.057Z,100555.97
2024-03-07T12:57:54.134Z,100556.81
2024-03-07T13:01:03.222Z,100550.13
2024-03-07T13:04:19.075Z,100560.56
2024-03-07T13:07:20.972Z,100556.81
2024-03-07T13:10:36.091Z,100567.44
2024-03-07T13:13:44.990Z,100549.22
2024-03-07T13:17:00.086Z,100568.81
2024-03-07T13:20:21.137Z,100562.44
2024-03-07T13:23:23.556Z,100565.87
2024-03-07T13:26:39.129Z,100551.97
2024-03-07T13:29:54.093Z,100560.00
2024-03-07T13:33:00.709Z,100560.03
2024-03-07T13:36:17.119Z,100558.97
2024-03-07T13:39:32.927Z,100562.72
2024-03-07T13:42:48.050Z,100561.84
2024-03-07T13:45:56.056Z,100573.34
2024-03-07T13:49:18.099Z,100569.63
2024-03-07T13:52:33.066Z,100570.66
2024-03-07T13:56:19.222Z,100569.28
2024-03-07T14:00:10.110Z,100567.13
2024-03-07T14:03:47.086Z,100575.41
2024-03-07T14:07:13.090Z,100572.16
2024-03-07T14:10:43.109Z,100572.44
2024-03-07T14:14:52.108Z,100581.78
2024-03-07T14:18:31.161Z,100582.28
2024-03-07T14:21:46.090Z,100588.97
2024-03-07T14:25:27.141Z,100585.25
2024-03-07T14:28:49.094Z,100586.56
2024-03-07T14:32:04.122Z,100590.84
2024-03-07T14:36:03.101Z,100586.50
2024-03-07T14:39:12.026Z,100582.00
2024-03-07T14:42:22.097Z,100587.06
2024-03-07T14:45:43.070Z,100581.94
2024-03-07T14:48:52.135Z,100579.50
2024-03-07T14:52:08.313Z,100580.06
2024-03-07T14:55:24.095Z,100582.72
2024-03-07T14:58:32.982Z,100589.59
2024-03-07T15:01:48.130Z,100588.78
2024-03-07T15:04:50.145Z,100590.09
2024-03-07T15:08:05.111Z,100579.97
2024-03-07T15:11:16.123Z,100587.38
2024-03-07T15:14:37.689Z,100587.09
2024-03-07T15:17:51.158Z,100584.97
2024-03-07T15:21:06.365Z,100578.31
2024-03-07T15:24:14.981Z,100586.84
2024-03-07T15:27:24.299Z,100590.56
2024-03-07T15:30:39.081Z,100592.47
2024-03-07T15:33:40.991Z,100604.31
2024-03-07T15:37:08.065Z,100591.53
2024-03-07T15:40:17.930Z,100592.03
2024-03-07T15:43:27.085Z,100600.53
2024-03-07T15:46:42.063Z,100601.31
2024-03-07T15:49:57.076Z,100600.28
2024-03-07T15:53:05.638Z,100609.87
2024-03-07T15:56:20.133Z,100607.97
2024-03-07T15:59:29.038Z,100615.91
2024-03-07T16:02:38.145Z,100612.63
2024-03-07T16:05:48.534Z,100609.97
2024-03-07T16:08:57.265Z,100615.47
2024-03-07T16:12:05.873Z,100614.97
2024-03-07T16:18:25.160Z,100606.66
2024-03-07T16:21:40.117Z,100611.38
2024-03-07T16:24:48.922Z,100624.38
2024-03-07T16:27:59.094Z,100618.19
2024-03-07T16:31:10.076Z,100625.12
2024-03-07T16:34:25.092Z,100620.84
2024-03-07T16:37:27.324Z,100629.94
2024-03-07T16:40:43.193Z,100632.00
2024-03-07T16:43:53.074Z,100639.69
2024-03-07T16:47:02.065Z,100631.62
2024-03-07T16:50:27.251Z,100633.00
2024-03-07T16:53:36.101Z,100644.19
2024-03-07T16:56:44.796Z,100643.44
2024-03-07T17:00:00.199Z,100651.19
2024-03-07T17:03:17.155Z,100649.63
2024-03-07T17:06:32.089Z,100653.78
2024-03-07T17:09:41.083Z,100651.13
2024-03-07T17:12:50.772Z,100652.62
2024-03-07T17:16:06.115Z,100656.16
2024-03-07T17:19:14.969Z,100658.16
2024-03-07T17:22:30.093Z,100655.50
2024-03-07T17:25:38.575Z,100655.22
2024-03-07T17:28:47.090Z,100665.41
2024-03-07T17:32:02.134Z,100668.59
2024-03-07T17:35:10.583Z,100665.81
2024-03-07T17:38:19.085Z,100669.91
2024-03-07T17:41:27.746Z,100669.28
2024-03-07T17:44:45.127Z,100674.63
2024-03-07T17:47:51.757Z,100667.84
2024-03-07T17:51:14.122Z,100681.75
2024-03-07T17:54:22.681Z,100680.63
2024-03-07T17:57:37.104Z,100682.72
2024-03-07T18:00:52.167Z,100680.00
2024-03-07T18:04:01.094Z,100686.44
2024-03-07T18:07:09.685Z,100686.38
2024-03-07T18:10:19.415Z,100689.03
2024-03-07T18:13:34.176Z,100680.50
2024-03-07T18:16:36.211Z,100676.78
2024-03-07T18:19:52.097Z,100687.84
2024-03-07T18:23:01.895Z,100694.63
2024-03-07T18:26:11.097Z,100691.00
2024-03-07T18:29:27.625Z,100689.56
2024-03-07T18:32:29.757Z,100695.75
2024-03-07T18:35:45.090Z,100693.22
2024-03-07T18:38:54.658Z,100701.44
2024-03-07T18:42:11.558Z,100697.25
2024-03-07T18:45:24.579Z,100700.34
2024-03-07T18:48:40.484Z,100698.72
2024-03-07T18:51:55.314Z,100703.00
2024-03-07T18:55:04.594Z,100712.03
2024-03-07T18:58:19.691Z,100707.59
2024-03-07T19:01:35.466Z,100707.03
2024-03-07T19:04:41.318Z,100716.84
2024-03-07T19:07:58.528Z,100718.78
2024-03-07T19:11:07.688Z,100719.59
2024-03-07T19:14:17.231Z,100713.56
2024-03-07T19:17:32.216Z,100719.97
2024-03-07T19:20:45.598Z,100722.66
2024-03-07T19:24:02.843Z,100712.25
2024-03-07T19:27:12.555Z,100718.06
2024-03-07T19:30:21.598Z,100713.28
2024-03-07T19:33:36.660Z,100723.19
2024-03-07T19:36:39.230Z,100722.66
2024-03-07T19:39:54.116Z,100721.59
2024-03-07T19:43:02.722Z,100718.94
2024-03-07T19:46:11.142Z,100720.06
2024-03-07T19:49:20.367Z,100726.69
2024-03-07T19:52:42.145Z,100724.66
2024-03-07T19:55:51.650Z,100720.72
2024-03-07T19:59:00.070Z,100720.72
2024-03-07T20:02:15.601Z,100722.97
2024-03-07T20:05:18.827Z,100727.25
2024-03-07T20:08:34.503Z,100720.00
2024-03-07T20:11:50.315Z,100730.03
2024-03-07T20:15:05.724Z,100725.06
2024-03-07T20:18:21.913Z,100727.47
2024-03-07T20:21:37.622Z,100734.88
2024-03-07T20:24:46.104Z,100731.97
2024-03-07T20:27:57.576Z,100734.78
2024-03-07T20:31:12.588Z,100734.22
2024-03-07T20:34:21.094Z,100732.13
2024-03-07T20:37:30.097Z,100734.31
2024-03-07T20:40:39.212Z,100729.91
2024-03-07T20:43:48.432Z,100733.59
2024-03-07T20:47:03.109Z,100732.13
2024-03-07T20:50:12.911Z,100729.16
2024-03-07T20:53:28.130Z,100737.69
2024-03-07T20:56:30.227Z,100739.97
2024-03-07T20:59:45.156Z,100740.19
2024-03-07T21:03:01.139Z,100735.03
2024-03-07T21:06:10.714Z,100736.97
2024-03-07T21:09:20.932Z,100731.06
2024-03-07T21:12:36.545Z,100732.53
2024-03-07T21:15:45.496Z,100735.81
2024-03-07T21:18:55.476Z,100733.81
2024-03-07T21:22:03.914Z,100733.16
2024-03-07T21:25:21.184Z,100724.72
2024-03-07T21:28:30.034Z,100728.75
2024-03-07T21:31:45.059Z,100725.75
2024-03-07T21:34:47.087Z,100721.59
2024-03-07T21:38:02.137Z,100728.03
2024-03-07T21:41:04.262Z,100733.81
2024-03-07T21:44:19.091Z,100735.75
2024-03-07T21:47:34.217Z,100735.34
2024-03-07T21:50:43.351Z,100732.72
2024-03-07T21:53:58.113Z,100735.94
2024-03-07T21:57:01.287Z,100735.06
2024-03-07T22:00:17.934Z,100740.12
2024-03-07T22:03:33.116Z,100736.19
2024-03-07T22:06:45.217Z,100742.63
2024-03-07T22:10:00.086Z,100726.00
2024-03-07T22:13:02.271Z,100732.13
2024-03-07T22:16:17.071Z,100739.03
2024-03-07T22:19:19.713Z,100725.19
2024-03-07T22:22:34.063Z,100737.09
2024-03-07T22:25:36.018Z,100733.16
2024-03-07T22:28:51.063Z,100731.00
2024-03-07T22:31:59.839Z,100738.00
2024-03-07T22:35:17.072Z,100728.06
2024-03-07T22:38:32.101Z,100726.59
2024-03-07T22:41:33.954Z,100725.66
2024-03-07T22:44:49.113Z,100722.78
2024-03-07T22:48:04.189Z,100724.03
2024-03-07T22:51:19.439Z,100723.38
2024-03-07T22:54:28.077Z,100723.78
2024-03-07T22:57:36.902Z,100728.84
2024-03-07T23:00:52.160Z,100732.97
2024-03-07T23:03:54.088Z,100728.03
2024-03-07T23:07:09.057Z,100738.00
2024-03-07T23:10:11.752Z,100736.56
2024-03-07T23:13:27.088Z,100721.94
2024-03-07T23:16:29.191Z,100736.19
2024-03-07T23:19:44.103Z,100732.81
2024-03-07T23:22:53.108Z,100738.97
2024-03-07T23:26:09.126Z,100734.56
2024-03-07T23:29:24.138Z,100740.94
2024-03-07T23:32:33.154Z,100741.16
2024-03-07T23:35:42.464Z,100741.87
2024-03-07T23:38:51.123Z,100741.09
2024-03-07T23:42:06.212Z,100742.47
2024-03-07T23:45:08.908Z,100740.75
2024-03-07T23:48:24.130Z,100742.53
2024-03-07T23:51:39.087Z,100745.03
2024-03-07T23:54:54.080Z,100745.03
2024-03-07T23:58:09.096Z,100751.38
